sensor_id;sensor_type;location;lat;lon;timestamp;temperature;humidity
21950;DHT22;11139;51.284;7.226;2023-03-31T00:02:24;11.50;99.90
21950;DHT22;11139;51.284;7.226;2023-03-31T00:04:50;11.40;99.90
21950;DHT22;11139;51.284;7.226;2023-03-31T00:07:19;11.50;99.90
21950;DHT22;11139;51.284;7.226;2023-03-31T00:09:47;11.50;99.90
21950;DHT22;11139;51.284;7.226;2023-03-31T00:12:13;11.50;99.90
21950;DHT22;11139;51.284;7.226;2023-03-31T00:14:40;11.50;99.90
21950;DHT22;11139;51.284;7.226;2023-03-31T00:17:06;11.40;99.90
21950;DHT22;11139;51.284;7.226;2023-03-31T00:19:31;11.50;99.90
21950;DHT22;11139;51.284;7.226;2023-03-31T00:21:57;11.40;99.90
21950;DHT22;11139;51.284;7.226;2023-03-31T00:24:27;11.50;99.90
21950;DHT22;11139;51.284;7.226;2023-03-31T00:26:52;11.50;99.90
21950;DHT22;11139;51.284;7.226;2023-03-31T00:29:18;11.50;99.90
21950;DHT22;11139;51.284;7.226;2023-03-31T00:31:43;11.40;99.90
21950;DHT22;11139;51.284;7.226;2023-03-31T00:34:09;11.40;99.90
21950;DHT22;11139;51.284;7.226;2023-03-31T00:36:34;11.40;99.90
21950;DHT22;11139;51.284;7.226;2023-03-31T00:39:04;11.40;99.90
21950;DHT22;11139;51.284;7.226;2023-03-31T00:41:34;11.40;99.90
21950;DHT22;11139;51.284;7.226;2023-03-31T00:44:04;11.40;99.90
21950;DHT22;11139;51.284;7.226;2023-03-31T00:46:35;11.40;99.90
21950;DHT22;11139;51.284;7.226;2023-03-31T00:49:02;11.40;99.90
21950;DHT22;11139;51.284;7.226;2023-03-31T00:51:28;11.30;99.90
21950;DHT22;11139;51.284;7.226;2023-03-31T00:53:57;11.30;99.90
21950;DHT22;11139;51.284;7.226;2023-03-31T00:56:24;11.30;99.90
21950;DHT22;11139;51.284;7.226;2023-03-31T00:58:50;11.30;99.90
21950;DHT22;11139;51.284;7.226;2023-03-31T01:01:19;11.20;99.90
21950;DHT22;11139;51.284;7.226;2023-03-31T01:03:49;11.20;99.90
21950;DHT22;11139;51.284;7.226;2023-03-31T01:06:15;11.20;99.90
21950;DHT22;11139;51.284;7.226;2023-03-31T01:08:44;11.20;99.90
21950;DHT22;11139;51.284;7.226;2023-03-31T01:11:12;11.20;99.90
21950;DHT22;11139;51.284;7.226;2023-03-31T01:13:38;11.20;99.90
21950;DHT22;11139;51.284;7.226;2023-03-31T01:16:05;11.20;99.90
21950;DHT22;11139;51.284;7.226;2023-03-31T01:18:30;11.20;99.90
21950;DHT22;11139;51.284;7.226;2023-03-31T01:23:44;11.20;99.90
21950;DHT22;11139;51.284;7.226;2023-03-31T01:44:38;11.20;99.90
21950;DHT22;11139;51.284;7.226;2023-03-31T01:47:09;11.20;99.90
21950;DHT22;11139;51.284;7.226;2023-03-31T01:55:15;11.20;99.90
21950;DHT22;11139;51.284;7.226;2023-03-31T01:57:52;11.20;99.90
21950;DHT22;11139;51.284;7.226;2023-03-31T02:00:22;11.20;99.90
21950;DHT22;11139;51.284;7.226;2023-03-31T02:02:55;11.20;99.90
21950;DHT22;11139;51.284;7.226;2023-03-31T02:05:26;11.20;99.90
21950;DHT22;11139;51.284;7.226;2023-03-31T02:08:01;11.20;99.90
21950;DHT22;11139;51.284;7.226;2023-03-31T02:10:29;11.10;99.90
21950;DHT22;11139;51.284;7.226;2023-03-31T02:12:55;11.20;99.90
21950;DHT22;11139;51.284;7.226;2023-03-31T02:15:29;11.10;99.90
21950;DHT22;11139;51.284;7.226;2023-03-31T02:17:57;11.10;99.90
21950;DHT22;11139;51.284;7.226;2023-03-31T02:20:24;11.10;99.90
21950;DHT22;11139;51.284;7.226;2023-03-31T02:22:54;11.10;99.90
21950;DHT22;11139;51.284;7.226;2023-03-31T02:25:23;11.10;99.90
21950;DHT22;11139;51.284;7.226;2023-03-31T02:27:54;11.10;99.90
21950;DHT22;11139;51.284;7.226;2023-03-31T02:30:22;11.10;99.90
21950;DHT22;11139;51.284;7.226;2023-03-31T02:32:49;11.10;99.90
21950;DHT22;11139;51.284;7.226;2023-03-31T02:35:15;11.10;99.90
21950;DHT22;11139;51.284;7.226;2023-03-31T02:37:42;11.10;99.90
21950;DHT22;11139;51.284;7.226;2023-03-31T02:40:09;11.10;99.90
21950;DHT22;11139;51.284;7.226;2023-03-31T02:42:39;11.10;99.90
21950;DHT22;11139;51.284;7.226;2023-03-31T02:45:06;11.00;99.90
21950;DHT22;11139;51.284;7.226;2023-03-31T02:47:51;11.00;99.90
21950;DHT22;11139;51.284;7.226;2023-03-31T02:50:17;11.10;99.90
21950;DHT22;11139;51.284;7.226;2023-03-31T02:52:54;11.10;99.90
21950;DHT22;11139;51.284;7.226;2023-03-31T02:58:36;11.00;99.90
21950;DHT22;11139;51.284;7.226;2023-03-31T03:03:45;11.10;99.90
21950;DHT22;11139;51.284;7.226;2023-03-31T03:06:30;11.10;99.90
21950;DHT22;11139;51.284;7.226;2023-03-31T03:11:33;11.00;99.90
21950;DHT22;11139;51.284;7.226;2023-03-31T03:16:49;11.00;99.90
21950;DHT22;11139;51.284;7.226;2023-03-31T03:19:17;11.00;99.90
21950;DHT22;11139;51.284;7.226;2023-03-31T03:21:43;11.00;99.90
21950;DHT22;11139;51.284;7.226;2023-03-31T03:24:10;11.00;99.90
21950;DHT22;11139;51.284;7.226;2023-03-31T03:26:35;11.00;99.90
21950;DHT22;11139;51.284;7.226;2023-03-31T03:29:01;11.00;99.90
21950;DHT22;11139;51.284;7.226;2023-03-31T03:31:26;11.00;99.90
21950;DHT22;11139;51.284;7.226;2023-03-31T03:33:52;11.00;99.90
21950;DHT22;11139;51.284;7.226;2023-03-31T03:36:18;11.00;99.90
21950;DHT22;11139;51.284;7.226;2023-03-31T03:38:43;11.00;99.90
21950;DHT22;11139;51.284;7.226;2023-03-31T03:41:08;11.00;99.90
21950;DHT22;11139;51.284;7.226;2023-03-31T03:43:34;11.00;99.90
21950;DHT22;11139;51.284;7.226;2023-03-31T03:46:00;11.00;99.90
21950;DHT22;11139;51.284;7.226;2023-03-31T03:48:25;10.90;99.90
21950;DHT22;11139;51.284;7.226;2023-03-31T03:50:51;11.00;99.90
21950;DHT22;11139;51.284;7.226;2023-03-31T03:53:17;10.90;99.90
21950;DHT22;11139;51.284;7.226;2023-03-31T03:55:43;10.90;99.90
21950;DHT22;11139;51.284;7.226;2023-03-31T03:58:09;10.90;99.90
21950;DHT22;11139;51.284;7.226;2023-03-31T04:00:35;10.90;99.90
21950;DHT22;11139;51.284;7.226;2023-03-31T04:03:01;10.90;99.90
21950;DHT22;11139;51.284;7.226;2023-03-31T04:05:26;10.90;99.90
21950;DHT22;11139;51.284;7.226;2023-03-31T04:07:52;10.90;99.90
21950;DHT22;11139;51.284;7.226;2023-03-31T04:10:17;10.90;99.90
21950;DHT22;11139;51.284;7.226;2023-03-31T04:12:42;10.90;99.90
21950;DHT22;11139;51.284;7.226;2023-03-31T04:15:08;10.90;99.90
21950;DHT22;11139;51.284;7.226;2023-03-31T04:17:34;10.90;99.90
21950;DHT22;11139;51.284;7.226;2023-03-31T04:20:01;10.90;99.90
21950;DHT22;11139;51.284;7.226;2023-03-31T04:22:30;10.90;99.90
21950;DHT22;11139;51.284;7.226;2023-03-31T04:25:05;10.90;99.90
21950;DHT22;11139;51.284;7.226;2023-03-31T04:27:35;10.90;99.90
21950;DHT22;11139;51.284;7.226;2023-03-31T04:30:00;10.90;99.90
21950;DHT22;11139;51.284;7.226;2023-03-31T04:32:26;10.90;99.90
21950;DHT22;11139;51.284;7.226;2023-03-31T04:34:52;10.90;99.90
21950;DHT22;11139;51.284;7.226;2023-03-31T04:37:28;10.80;99.90
21950;DHT22;11139;51.284;7.226;2023-03-31T04:40:01;10.80;99.90
21950;DHT22;11139;51.284;7.226;2023-03-31T04:42:34;10.80;99.90
21950;DHT22;11139;51.284;7.226;2023-03-31T04:45:00;10.90;99.90
21950;DHT22;11139;51.284;7.226;2023-03-31T04:47:25;10.80;99.90
21950;DHT22;11139;51.284;7.226;2023-03-31T04:49:51;10.80;99.90
21950;DHT22;11139;51.284;7.226;2023-03-31T04:52:16;10.80;99.90
21950;DHT22;11139;51.284;7.226;2023-03-31T04:54:42;10.80;99.90
21950;DHT22;11139;51.284;7.226;2023-03-31T04:57:07;10.80;99.90
21950;DHT22;11139;51.284;7.226;2023-03-31T04:59:33;10.80;99.90
21950;DHT22;11139;51.284;7.226;2023-03-31T05:01:58;10.80;99.90
21950;DHT22;11139;51.284;7.226;2023-03-31T05:04:24;10.80;99.90
21950;DHT22;11139;51.284;7.226;2023-03-31T05:06:49;10.80;99.90
21950;DHT22;11139;51.284;7.226;2023-03-31T05:09:15;10.80;99.90
21950;DHT22;11139;51.284;7.226;2023-03-31T05:11:41;10.80;99.90
21950;DHT22;11139;51.284;7.226;2023-03-31T05:14:06;10.80;99.90
21950;DHT22;11139;51.284;7.226;2023-03-31T05:16:32;10.80;99.90
21950;DHT22;11139;51.284;7.226;2023-03-31T05:18:57;10.80;99.90
21950;DHT22;11139;51.284;7.226;2023-03-31T05:21:22;10.80;99.90
21950;DHT22;11139;51.284;7.226;2023-03-31T05:23:48;10.80;99.90
21950;DHT22;11139;51.284;7.226;2023-03-31T05:26:14;10.80;99.90
21950;DHT22;11139;51.284;7.226;2023-03-31T05:28:40;10.80;99.90
21950;DHT22;11139;51.284;7.226;2023-03-31T05:31:06;10.80;99.90
21950;DHT22;11139;51.284;7.226;2023-03-31T05:33:32;10.80;99.90
21950;DHT22;11139;51.284;7.226;2023-03-31T05:35:58;10.80;99.90
21950;DHT22;11139;51.284;7.226;2023-03-31T05:38:25;10.80;99.90
21950;DHT22;11139;51.284;7.226;2023-03-31T05:40:54;10.70;99.90
21950;DHT22;11139;51.284;7.226;2023-03-31T05:43:19;10.80;99.90
21950;DHT22;11139;51.284;7.226;2023-03-31T05:45:45;10.70;99.90
21950;DHT22;11139;51.284;7.226;2023-03-31T05:48:10;10.70;99.90
21950;DHT22;11139;51.284;7.226;2023-03-31T05:50:36;10.70;99.90
21950;DHT22;11139;51.284;7.226;2023-03-31T05:53:01;10.70;99.90
21950;DHT22;11139;51.284;7.226;2023-03-31T05:55:27;10.70;99.90
21950;DHT22;11139;51.284;7.226;2023-03-31T05:57:52;10.70;99.90
21950;DHT22;11139;51.284;7.226;2023-03-31T06:00:18;10.70;99.90
21950;DHT22;11139;51.284;7.226;2023-03-31T06:02:44;10.70;99.90
21950;DHT22;11139;51.284;7.226;2023-03-31T06:05:10;10.70;99.90
21950;DHT22;11139;51.284;7.226;2023-03-31T06:07:35;10.70;99.90
21950;DHT22;11139;51.284;7.226;2023-03-31T06:10:00;10.70;99.90
21950;DHT22;11139;51.284;7.226;2023-03-31T06:12:26;10.70;99.90
21950;DHT22;11139;51.284;7.226;2023-03-31T06:14:52;10.70;99.90
21950;DHT22;11139;51.284;7.226;2023-03-31T06:17:17;10.70;99.90
21950;DHT22;11139;51.284;7.226;2023-03-31T06:19:43;10.70;99.90
21950;DHT22;11139;51.284;7.226;2023-03-31T06:22:08;10.70;99.90
21950;DHT22;11139;51.284;7.226;2023-03-31T06:24:34;10.70;99.90
21950;DHT22;11139;51.284;7.226;2023-03-31T06:26:59;10.70;99.90
21950;DHT22;11139;51.284;7.226;2023-03-31T06:29:25;10.60;99.90
21950;DHT22;11139;51.284;7.226;2023-03-31T06:31:51;10.60;99.90
21950;DHT22;11139;51.284;7.226;2023-03-31T06:34:17;10.60;99.90
21950;DHT22;11139;51.284;7.226;2023-03-31T06:36:42;10.60;99.90
21950;DHT22;11139;51.284;7.226;2023-03-31T06:39:08;10.60;99.90
21950;DHT22;11139;51.284;7.226;2023-03-31T06:41:33;10.60;99.90
21950;DHT22;11139;51.284;7.226;2023-03-31T06:43:59;10.60;99.90
21950;DHT22;11139;51.284;7.226;2023-03-31T06:46:24;10.60;99.90
21950;DHT22;11139;51.284;7.226;2023-03-31T06:48:50;10.60;99.90
21950;DHT22;11139;51.284;7.226;2023-03-31T06:51:15;10.60;99.90
21950;DHT22;11139;51.284;7.226;2023-03-31T06:53:41;10.60;99.90
21950;DHT22;11139;51.284;7.226;2023-03-31T06:56:06;10.60;99.90
21950;DHT22;11139;51.284;7.226;2023-03-31T06:58:32;10.60;99.90
21950;DHT22;11139;51.284;7.226;2023-03-31T07:00:58;10.60;99.90
21950;DHT22;11139;51.284;7.226;2023-03-31T07:03:23;10.60;99.90
21950;DHT22;11139;51.284;7.226;2023-03-31T07:05:50;10.60;99.90
21950;DHT22;11139;51.284;7.226;2023-03-31T07:08:16;10.60;99.90
21950;DHT22;11139;51.284;7.226;2023-03-31T07:10:44;10.60;99.90
21950;DHT22;11139;51.284;7.226;2023-03-31T07:13:16;10.50;99.90
21950;DHT22;11139;51.284;7.226;2023-03-31T07:15:42;10.50;99.90
21950;DHT22;11139;51.284;7.226;2023-03-31T07:18:08;10.50;99.90
21950;DHT22;11139;51.284;7.226;2023-03-31T07:20:34;10.60;99.90
21950;DHT22;11139;51.284;7.226;2023-03-31T07:23:01;10.50;99.90
21950;DHT22;11139;51.284;7.226;2023-03-31T07:25:27;10.50;99.90
21950;DHT22;11139;51.284;7.226;2023-03-31T07:27:52;10.50;99.90
21950;DHT22;11139;51.284;7.226;2023-03-31T07:30:18;10.50;99.90
21950;DHT22;11139;51.284;7.226;2023-03-31T07:32:45;10.50;99.90
21950;DHT22;11139;51.284;7.226;2023-03-31T07:35:11;10.50;99.90
21950;DHT22;11139;51.284;7.226;2023-03-31T07:37:37;10.50;99.90
21950;DHT22;11139;51.284;7.226;2023-03-31T07:40:03;10.50;99.90
21950;DHT22;11139;51.284;7.226;2023-03-31T07:42:30;10.50;99.90
21950;DHT22;11139;51.284;7.226;2023-03-31T07:44:56;10.50;99.90
21950;DHT22;11139;51.284;7.226;2023-03-31T07:47:22;10.50;99.90
21950;DHT22;11139;51.284;7.226;2023-03-31T07:49:48;10.50;99.90
21950;DHT22;11139;51.284;7.226;2023-03-31T07:52:14;10.50;99.90
21950;DHT22;11139;51.284;7.226;2023-03-31T07:54:40;10.50;99.90
21950;DHT22;11139;51.284;7.226;2023-03-31T07:57:05;10.50;99.90
21950;DHT22;11139;51.284;7.226;2023-03-31T07:59:32;10.50;99.90
21950;DHT22;11139;51.284;7.226;2023-03-31T08:01:58;10.50;99.90
21950;DHT22;11139;51.284;7.226;2023-03-31T08:04:23;10.50;99.90
21950;DHT22;11139;51.284;7.226;2023-03-31T08:06:49;10.50;99.90
21950;DHT22;11139;51.284;7.226;2023-03-31T08:09:15;10.50;99.90
21950;DHT22;11139;51.284;7.226;2023-03-31T08:11:42;10.50;99.90
21950;DHT22;11139;51.284;7.226;2023-03-31T08:14:08;10.50;99.90
21950;DHT22;11139;51.284;7.226;2023-03-31T08:16:33;10.50;99.90
21950;DHT22;11139;51.284;7.226;2023-03-31T08:18:59;10.50;99.90
21950;DHT22;11139;51.284;7.226;2023-03-31T08:21:27;10.50;99.90
21950;DHT22;11139;51.284;7.226;2023-03-31T08:23:53;10.50;99.90
21950;DHT22;11139;51.284;7.226;2023-03-31T08:26:19;10.50;99.90
21950;DHT22;11139;51.284;7.226;2023-03-31T08:28:46;10.50;99.90
21950;DHT22;11139;51.284;7.226;2023-03-31T08:31:13;10.50;99.90
21950;DHT22;11139;51.284;7.226;2023-03-31T08:33:40;10.50;99.90
21950;DHT22;11139;51.284;7.226;2023-03-31T08:36:06;10.50;99.90
21950;DHT22;11139;51.284;7.226;2023-03-31T08:38:34;10.50;99.90
21950;DHT22;11139;51.284;7.226;2023-03-31T08:41:02;10.50;99.90
21950;DHT22;11139;51.284;7.226;2023-03-31T08:43:30;10.50;99.90
21950;DHT22;11139;51.284;7.226;2023-03-31T08:45:56;10.50;99.90
21950;DHT22;11139;51.284;7.226;2023-03-31T08:50:55;10.50;99.90
21950;DHT22;11139;51.284;7.226;2023-03-31T08:53:23;10.50;99.90
21950;DHT22;11139;51.284;7.226;2023-03-31T08:55:54;10.50;99.90
21950;DHT22;11139;51.284;7.226;2023-03-31T09:07:03;10.50;99.90
21950;DHT22;11139;51.284;7.226;2023-03-31T09:12:19;10.50;99.90
21950;DHT22;11139;51.284;7.226;2023-03-31T09:17:23;10.50;99.90
21950;DHT22;11139;51.284;7.226;2023-03-31T09:19:57;10.50;99.90
21950;DHT22;11139;51.284;7.226;2023-03-31T09:22:25;10.50;99.90
21950;DHT22;11139;51.284;7.226;2023-03-31T09:24:55;10.50;99.90
21950;DHT22;11139;51.284;7.226;2023-03-31T09:27:22;10.60;99.90
21950;DHT22;11139;51.284;7.226;2023-03-31T09:32:23;10.50;99.90
21950;DHT22;11139;51.284;7.226;2023-03-31T09:34:51;10.50;99.90
21950;DHT22;11139;51.284;7.226;2023-03-31T09:37:17;10.50;99.90
21950;DHT22;11139;51.284;7.226;2023-03-31T09:39:42;10.50;99.90
21950;DHT22;11139;51.284;7.226;2023-03-31T09:42:12;10.50;99.90
21950;DHT22;11139;51.284;7.226;2023-03-31T09:44:46;10.60;99.90
21950;DHT22;11139;51.284;7.226;2023-03-31T09:47:23;10.60;99.90
21950;DHT22;11139;51.284;7.226;2023-03-31T09:49:49;10.60;99.90
21950;DHT22;11139;51.284;7.226;2023-03-31T09:54:50;10.70;99.90
21950;DHT22;11139;51.284;7.226;2023-03-31T09:59:51;10.70;99.90
21950;DHT22;11139;51.284;7.226;2023-03-31T10:04:45;10.70;99.90
21950;DHT22;11139;51.284;7.226;2023-03-31T10:07:11;10.70;99.90
21950;DHT22;11139;51.284;7.226;2023-03-31T10:09:37;10.70;99.90
21950;DHT22;11139;51.284;7.226;2023-03-31T10:12:04;10.80;99.90
21950;DHT22;11139;51.284;7.226;2023-03-31T10:14:40;10.70;99.90
21950;DHT22;11139;51.284;7.226;2023-03-31T10:17:10;10.70;99.90
21950;DHT22;11139;51.284;7.226;2023-03-31T10:19:38;10.70;99.90
21950;DHT22;11139;51.284;7.226;2023-03-31T10:22:26;10.80;99.90
21950;DHT22;11139;51.284;7.226;2023-03-31T10:24:52;10.80;99.90
21950;DHT22;11139;51.284;7.226;2023-03-31T10:29:46;10.80;99.90
21950;DHT22;11139;51.284;7.226;2023-03-31T10:32:17;10.80;99.90
21950;DHT22;11139;51.284;7.226;2023-03-31T10:34:44;10.80;99.90
21950;DHT22;11139;51.284;7.226;2023-03-31T10:37:13;10.80;99.90
21950;DHT22;11139;51.284;7.226;2023-03-31T10:39:40;10.70;99.90
21950;DHT22;11139;51.284;7.226;2023-03-31T10:42:07;10.60;99.90
21950;DHT22;11139;51.284;7.226;2023-03-31T10:44:34;10.60;99.90
21950;DHT22;11139;51.284;7.226;2023-03-31T10:47:03;10.60;99.90
21950;DHT22;11139;51.284;7.226;2023-03-31T10:49:29;10.60;99.90
21950;DHT22;11139;51.284;7.226;2023-03-31T10:51:55;10.60;99.90
21950;DHT22;11139;51.284;7.226;2023-03-31T10:54:22;10.60;99.90
21950;DHT22;11139;51.284;7.226;2023-03-31T10:56:48;10.60;99.90
21950;DHT22;11139;51.284;7.226;2023-03-31T11:06:52;10.80;99.90
21950;DHT22;11139;51.284;7.226;2023-03-31T11:12:11;10.90;99.90
21950;DHT22;11139;51.284;7.226;2023-03-31T11:14:53;11.00;99.90
21950;DHT22;11139;51.284;7.226;2023-03-31T11:20:12;11.10;99.90
21950;DHT22;11139;51.284;7.226;2023-03-31T11:22:43;11.10;99.90
21950;DHT22;11139;51.284;7.226;2023-03-31T11:25:17;11.10;99.90
21950;DHT22;11139;51.284;7.226;2023-03-31T11:27:58;11.10;99.90
21950;DHT22;11139;51.284;7.226;2023-03-31T11:41:33;10.60;99.90
21950;DHT22;11139;51.284;7.226;2023-03-31T11:43:30;10.60;99.90
21950;DHT22;11139;51.284;7.226;2023-03-31T11:46:11;10.60;99.90
21950;DHT22;11139;51.284;7.226;2023-03-31T11:48:54;10.50;99.90
21950;DHT22;11139;51.284;7.226;2023-03-31T11:51:26;10.50;99.90
21950;DHT22;11139;51.284;7.226;2023-03-31T11:53:53;10.50;99.90
21950;DHT22;11139;51.284;7.226;2023-03-31T11:56:20;10.50;99.90
21950;DHT22;11139;51.284;7.226;2023-03-31T11:58:56;10.50;99.90
21950;DHT22;11139;51.284;7.226;2023-03-31T12:01:38;10.50;99.90
21950;DHT22;11139;51.284;7.226;2023-03-31T12:04:27;10.50;99.90
21950;DHT22;11139;51.284;7.226;2023-03-31T12:06:57;10.50;99.90
21950;DHT22;11139;51.284;7.226;2023-03-31T12:09:29;10.50;99.90
21950;DHT22;11139;51.284;7.226;2023-03-31T12:12:02;10.50;99.90
21950;DHT22;11139;51.284;7.226;2023-03-31T12:14:30;10.50;99.90
21950;DHT22;11139;51.284;7.226;2023-03-31T12:17:04;10.50;99.90
21950;DHT22;11139;51.284;7.226;2023-03-31T12:19:40;10.50;99.90
21950;DHT22;11139;51.284;7.226;2023-03-31T12:22:18;10.50;99.90
21950;DHT22;11139;51.284;7.226;2023-03-31T12:24:46;10.50;99.90
21950;DHT22;11139;51.284;7.226;2023-03-31T12:27:13;10.60;99.90
21950;DHT22;11139;51.284;7.226;2023-03-31T12:29:45;10.60;99.90
21950;DHT22;11139;51.284;7.226;2023-03-31T12:32:13;10.60;99.90
21950;DHT22;11139;51.284;7.226;2023-03-31T12:55:08;10.60;99.90
21950;DHT22;11139;51.284;7.226;2023-03-31T12:57:36;10.60;99.90
21950;DHT22;11139;51.284;7.226;2023-03-31T13:02:31;10.60;99.90
21950;DHT22;11139;51.284;7.226;2023-03-31T13:04:57;10.60;99.90
21950;DHT22;11139;51.284;7.226;2023-03-31T13:09:57;10.60;99.90
21950;DHT22;11139;51.284;7.226;2023-03-31T13:12:24;10.70;99.90
21950;DHT22;11139;51.284;7.226;2023-03-31T13:14:52;10.60;99.90
21950;DHT22;11139;51.284;7.226;2023-03-31T13:19:44;10.70;99.90
21950;DHT22;11139;51.284;7.226;2023-03-31T13:22:28;10.70;99.90
21950;DHT22;11139;51.284;7.226;2023-03-31T13:25:14;10.70;99.90
21950;DHT22;11139;51.284;7.226;2023-03-31T13:27:47;10.70;99.90
21950;DHT22;11139;51.284;7.226;2023-03-31T13:33:04;10.70;99.90
21950;DHT22;11139;51.284;7.226;2023-03-31T13:35:34;10.70;99.90
21950;DHT22;11139;51.284;7.226;2023-03-31T13:40:49;10.70;99.90
21950;DHT22;11139;51.284;7.226;2023-03-31T14:06:49;10.90;99.90
21950;DHT22;11139;51.284;7.226;2023-03-31T14:11:42;10.90;99.90
21950;DHT22;11139;51.284;7.226;2023-03-31T14:14:11;10.90;99.90
21950;DHT22;11139;51.284;7.226;2023-03-31T14:16:37;10.90;99.90
21950;DHT22;11139;51.284;7.226;2023-03-31T14:19:20;10.90;99.90
21950;DHT22;11139;51.284;7.226;2023-03-31T14:27:14;10.90;99.90
21950;DHT22;11139;51.284;7.226;2023-03-31T14:29:47;10.90;99.90
21950;DHT22;11139;51.284;7.226;2023-03-31T14:37:28;11.10;99.90
21950;DHT22;11139;51.284;7.226;2023-03-31T14:39:55;11.20;99.90
21950;DHT22;11139;51.284;7.226;2023-03-31T14:42:40;11.20;99.90
21950;DHT22;11139;51.284;7.226;2023-03-31T14:47:41;11.20;99.90
21950;DHT22;11139;51.284;7.226;2023-03-31T14:52:33;11.10;99.90
21950;DHT22;11139;51.284;7.226;2023-03-31T14:54:59;11.10;99.90
21950;DHT22;11139;51.284;7.226;2023-03-31T14:57:27;11.10;99.90
21950;DHT22;11139;51.284;7.226;2023-03-31T14:59:54;11.20;99.90
21950;DHT22;11139;51.284;7.226;2023-03-31T15:02:28;11.20;99.90
21950;DHT22;11139;51.284;7.226;2023-03-31T15:04:55;11.10;99.90
21950;DHT22;11139;51.284;7.226;2023-03-31T15:07:21;11.10;99.90
21950;DHT22;11139;51.284;7.226;2023-03-31T15:09:48;11.10;99.90
21950;DHT22;11139;51.284;7.226;2023-03-31T15:12:14;11.10;99.90
21950;DHT22;11139;51.284;7.226;2023-03-31T15:14:43;11.10;99.90
21950;DHT22;11139;51.284;7.226;2023-03-31T15:17:28;11.10;99.90
21950;DHT22;11139;51.284;7.226;2023-03-31T15:19:55;11.10;99.90
21950;DHT22;11139;51.284;7.226;2023-03-31T15:22:21;11.10;99.90
21950;DHT22;11139;51.284;7.226;2023-03-31T15:24:47;11.10;99.90
21950;DHT22;11139;51.284;7.226;2023-03-31T15:29:51;11.10;99.90
21950;DHT22;11139;51.284;7.226;2023-03-31T15:34:49;11.10;99.90
21950;DHT22;11139;51.284;7.226;2023-03-31T15:37:15;11.10;99.90
21950;DHT22;11139;51.284;7.226;2023-03-31T15:39:43;11.10;99.90
21950;DHT22;11139;51.284;7.226;2023-03-31T15:42:09;11.00;99.90
21950;DHT22;11139;51.284;7.226;2023-03-31T15:44:36;11.00;99.90
21950;DHT22;11139;51.284;7.226;2023-03-31T15:49:46;10.90;99.90
21950;DHT22;11139;51.284;7.226;2023-03-31T15:52:21;10.90;99.90
21950;DHT22;11139;51.284;7.226;2023-03-31T15:54:49;10.90;99.90
21950;DHT22;11139;51.284;7.226;2023-03-31T15:57:15;10.90;99.90
21950;DHT22;11139;51.284;7.226;2023-03-31T16:02:11;10.80;99.90
21950;DHT22;11139;51.284;7.226;2023-03-31T16:04:37;10.80;99.90
21950;DHT22;11139;51.284;7.226;2023-03-31T16:07:20;10.80;99.90
21950;DHT22;11139;51.284;7.226;2023-03-31T16:12:25;10.80;99.90
21950;DHT22;11139;51.284;7.226;2023-03-31T16:14:55;10.80;99.90
21950;DHT22;11139;51.284;7.226;2023-03-31T16:19:52;10.80;99.90
21950;DHT22;11139;51.284;7.226;2023-03-31T16:22:20;10.80;99.90
21950;DHT22;11139;51.284;7.226;2023-03-31T16:24:46;10.80;99.90
21950;DHT22;11139;51.284;7.226;2023-03-31T16:27:11;10.80;99.90
21950;DHT22;11139;51.284;7.226;2023-03-31T16:29:37;10.80;99.90
21950;DHT22;11139;51.284;7.226;2023-03-31T16:34:31;10.80;99.90
21950;DHT22;11139;51.284;7.226;2023-03-31T16:36:57;10.80;99.90
21950;DHT22;11139;51.284;7.226;2023-03-31T16:39:22;10.80;99.90
21950;DHT22;11139;51.284;7.226;2023-03-31T16:41:48;10.70;99.90
21950;DHT22;11139;51.284;7.226;2023-03-31T16:44:13;10.70;99.90
21950;DHT22;11139;51.284;7.226;2023-03-31T16:46:39;10.80;99.90
21950;DHT22;11139;51.284;7.226;2023-03-31T16:49:04;10.70;99.90
21950;DHT22;11139;51.284;7.226;2023-03-31T16:51:30;10.80;99.90
21950;DHT22;11139;51.284;7.226;2023-03-31T16:53:55;10.80;99.90
21950;DHT22;11139;51.284;7.226;2023-03-31T16:56:21;10.70;99.90
21950;DHT22;11139;51.284;7.226;2023-03-31T16:58:47;10.70;99.90
21950;DHT22;11139;51.284;7.226;2023-03-31T17:01:13;10.70;99.90
21950;DHT22;11139;51.284;7.226;2023-03-31T17:03:38;10.70;99.90
21950;DHT22;11139;51.284;7.226;2023-03-31T17:06:06;10.70;99.90
21950;DHT22;11139;51.284;7.226;2023-03-31T17:08:32;10.70;99.90
21950;DHT22;11139;51.284;7.226;2023-03-31T17:11:02;10.70;99.90
21950;DHT22;11139;51.284;7.226;2023-03-31T17:13:28;10.70;99.90
21950;DHT22;11139;51.284;7.226;2023-03-31T17:15:53;10.70;99.90
21950;DHT22;11139;51.284;7.226;2023-03-31T17:18:19;10.70;99.90
21950;DHT22;11139;51.284;7.226;2023-03-31T17:20:44;10.70;99.90
21950;DHT22;11139;51.284;7.226;2023-03-31T17:23:10;10.70;99.90
21950;DHT22;11139;51.284;7.226;2023-03-31T17:25:36;10.70;99.90
21950;DHT22;11139;51.284;7.226;2023-03-31T17:28:02;10.70;99.90
21950;DHT22;11139;51.284;7.226;2023-03-31T17:30:28;10.60;99.90
21950;DHT22;11139;51.284;7.226;2023-03-31T17:32:54;10.70;99.90
21950;DHT22;11139;51.284;7.226;2023-03-31T17:35:19;10.60;99.90
21950;DHT22;11139;51.284;7.226;2023-03-31T17:37:46;10.60;99.90
21950;DHT22;11139;51.284;7.226;2023-03-31T17:40:12;10.60;99.90
21950;DHT22;11139;51.284;7.226;2023-03-31T17:42:37;10.60;99.90
21950;DHT22;11139;51.284;7.226;2023-03-31T17:45:03;10.60;99.90
21950;DHT22;11139;51.284;7.226;2023-03-31T17:47:29;10.60;99.90
21950;DHT22;11139;51.284;7.226;2023-03-31T17:49:54;10.60;99.90
21950;DHT22;11139;51.284;7.226;2023-03-31T17:52:20;10.60;99.90
21950;DHT22;11139;51.284;7.226;2023-03-31T17:54:46;10.60;99.90
21950;DHT22;11139;51.284;7.226;2023-03-31T17:57:12;10.60;99.90
21950;DHT22;11139;51.284;7.226;2023-03-31T17:59:38;10.60;99.90
21950;DHT22;11139;51.284;7.226;2023-03-31T18:02:03;10.60;99.90
21950;DHT22;11139;51.284;7.226;2023-03-31T18:04:29;10.60;99.90
21950;DHT22;11139;51.284;7.226;2023-03-31T18:06:54;10.60;99.90
21950;DHT22;11139;51.284;7.226;2023-03-31T18:09:20;10.60;99.90
21950;DHT22;11139;51.284;7.226;2023-03-31T18:11:46;10.60;99.90
21950;DHT22;11139;51.284;7.226;2023-03-31T18:14:12;10.60;99.90
21950;DHT22;11139;51.284;7.226;2023-03-31T18:16:38;10.60;99.90
21950;DHT22;11139;51.284;7.226;2023-03-31T18:19:04;10.60;99.90
21950;DHT22;11139;51.284;7.226;2023-03-31T18:21:29;10.50;99.90
21950;DHT22;11139;51.284;7.226;2023-03-31T18:23:55;10.60;99.90
21950;DHT22;11139;51.284;7.226;2023-03-31T18:26:21;10.60;99.90
21950;DHT22;11139;51.284;7.226;2023-03-31T18:28:48;10.60;99.90
21950;DHT22;11139;51.284;7.226;2023-03-31T18:31:13;10.50;99.90
21950;DHT22;11139;51.284;7.226;2023-03-31T18:33:39;10.50;99.90
21950;DHT22;11139;51.284;7.226;2023-03-31T18:36:05;10.50;99.90
21950;DHT22;11139;51.284;7.226;2023-03-31T18:38:31;10.50;99.90